Terminal Aerodrome Forecast
Issued by NWS

Home | Current Version | Previous Version | Text Only | Print | Product List | Glossary On
Versions: 1 2 3 4 5 6 7 8 9 10 11 12 13 14 15 16
000
FTUS41 KCAR 221748 AAA
TAFHUL
TAF AMD
KHUL 221748Z 2218/2318 20009G18KT P6SM BKN060
     FM230200 19007KT 4SM -SHRA OVC025
     FM230530 19007KT 4SM -DZ BKN007 OVC020
     FM231400 19006KT P6SM BKN015
     FM231630 23008KT P6SM BKN040=

USA.gov is the U.S. government's official web portal to all federal, state and local government web resources and services.